Co Ong Airport


Codes: VVCS/VCS
Name: Co Ong Airport
City: Con Ong
Country: Vietnam
Elevation: 20 ft.
Wikipedia:

Photos at Co Ong Airport


   Photos courtesy of SpottingLog. You can add your own sightings and photos by signing up for a free trial today.



No photos found.

Weather at Co Ong Airport


Time (UTC)DescriptionTempratureWindCloud coverageVisibilityPressureHumidity
15-Apr-2024 18:00Clear Sky28°C11 mph, E2%10000m1011hPa80%
15-Apr-2024 21:00Clear Sky28°C13 mph, E4%10000m1010hPa77%
16-Apr-2024 00:00Few Clouds28°C16 mph, E15%10000m1011hPa79%
16-Apr-2024 03:00Clear Sky28°C13 mph, E7%10000m1011hPa72%
16-Apr-2024 06:00Few Clouds29°C9 mph, E12%10000m1010hPa69%
16-Apr-2024 09:00Clear Sky29°C9 mph, E6%10000m1008hPa71%
16-Apr-2024 12:00Few Clouds28°C11 mph, E12%10000m1009hPa75%
16-Apr-2024 15:00Broken Clouds28°C13 mph, SE79%10000m1010hPa79%
16-Apr-2024 18:00Broken Clouds28°C9 mph, SE81%10000m1009hPa80%
16-Apr-2024 21:00Light Rain28°C7 mph, E90%10000m1008hPa80%
17-Apr-2024 00:00Light Rain28°C7 mph, SE95%10000m1010hPa79%
17-Apr-2024 03:00Light Rain29°C4 mph, E100%10000m1011hPa75%
17-Apr-2024 06:00Light Rain29°C4 mph, E97%10000m1009hPa72%
17-Apr-2024 09:00Light Rain29°C7 mph, SE42%10000m1007hPa75%
17-Apr-2024 12:00Broken Clouds29°C11 mph, SE66%10000m1008hPa78%
17-Apr-2024 15:00Broken Clouds29°C11 mph, SE66%10000m1010hPa79%
17-Apr-2024 18:00Broken Clouds28°C9 mph, SE83%10000m1008hPa78%
17-Apr-2024 21:00Broken Clouds28°C7 mph, SE80%10000m1008hPa77%
18-Apr-2024 00:00Broken Clouds28°C4 mph, SE82%10000m1010hPa77%
18-Apr-2024 03:00Overcast Clouds28°C2 mph, SE100%10000m1011hPa76%
18-Apr-2024 06:00Broken Clouds28°C2 mph, S63%10000m1008hPa74%
18-Apr-2024 09:00Few Clouds29°C4 mph, S11%10000m1006hPa72%
18-Apr-2024 12:00Few Clouds29°C11 mph, S19%10000m1007hPa76%
18-Apr-2024 15:00Broken Clouds29°C11 mph, S83%10000m1009hPa76%
18-Apr-2024 18:00Overcast Clouds28°C9 mph, S87%10000m1008hPa77%
18-Apr-2024 21:00Overcast Clouds28°C7 mph, S100%10000m1007hPa78%
19-Apr-2024 00:00Light Rain28°C4 mph, SW100%10000m1009hPa78%
19-Apr-2024 03:00Light Rain28°C4 mph, S100%10000m1010hPa78%
19-Apr-2024 06:00Overcast Clouds29°C4 mph, S98%10000m1008hPa77%
19-Apr-2024 09:00Few Clouds29°C7 mph, S18%10000m1006hPa75%
19-Apr-2024 12:00Few Clouds29°C9 mph, SE14%10000m1007hPa76%
19-Apr-2024 15:00Clear Sky28°C9 mph, SE9%10000m1009hPa77%
19-Apr-2024 18:00Few Clouds28°C9 mph, SE23%10000m1007hPa77%
19-Apr-2024 21:00Scattered Clouds28°C7 mph, SE26%10000m1008hPa76%
20-Apr-2024 00:00Scattered Clouds28°C9 mph, SE49%10000m1009hPa76%
20-Apr-2024 03:00Overcast Clouds28°C9 mph, SE100%10000m1010hPa74%
20-Apr-2024 06:00Broken Clouds29°C7 mph, SE84%10000m1008hPa72%
20-Apr-2024 09:00Few Clouds29°C7 mph, SE15%10000m1006hPa71%
20-Apr-2024 12:00Few Clouds28°C9 mph, SE11%10000m1007hPa72%
20-Apr-2024 15:00Broken Clouds28°C9 mph, SE54%10000m1009hPa72%